createdAt,value
2017-12-21T00:02:07.371Z,100857.16
2017-12-21T00:04:41.989Z,100845.69
2017-12-21T00:07:16.376Z,100835.21
2017-12-21T00:09:50.806Z,100847.52
2017-12-21T00:12:25.250Z,100849.38
2017-12-21T00:14:59.778Z,100846.94
2017-12-21T00:17:33.927Z,100845.00
2017-12-21T00:20:13.146Z,100846.83
2017-12-21T00:22:47.777Z,100848.03
2017-12-21T00:25:22.298Z,100840.27
2017-12-21T00:27:57.546Z,100840.25
2017-12-21T00:30:32.122Z,100837.11
2017-12-21T00:33:06.688Z,100832.58
2017-12-21T00:35:41.323Z,100835.23
2017-12-21T00:38:15.821Z,100831.37
2017-12-21T00:40:50.215Z,100826.78
2017-12-21T00:43:24.978Z,100822.37
2017-12-21T00:46:11.849Z,100822.25
2017-12-21T00:48:46.310Z,100815.37
2017-12-21T00:51:20.752Z,100809.67
2017-12-21T00:53:55.166Z,100809.74
2017-12-21T00:56:29.565Z,100809.00
2017-12-21T00:59:04.068Z,100810.74
2017-12-21T01:01:38.430Z,100810.78
2017-12-21T01:04:12.947Z,100813.84
2017-12-21T01:06:47.308Z,100813.80
2017-12-21T01:09:21.817Z,100805.32
2017-12-21T01:11:56.203Z,100806.27
2017-12-21T01:14:30.773Z,100798.09
2017-12-21T01:17:05.193Z,100785.78
2017-12-21T01:19:39.694Z,100784.07
2017-12-21T01:22:14.135Z,100785.02
2017-12-21T01:24:48.518Z,100782.23
2017-12-21T01:27:22.901Z,100759.95
2017-12-21T01:29:57.457Z,100776.23
2017-12-21T01:32:32.512Z,100776.18
2017-12-21T01:35:12.167Z,100777.33
2017-12-21T01:37:46.553Z,100773.47
2017-12-21T01:40:20.568Z,100778.20
2017-12-21T01:42:56.899Z,100763.69
2017-12-21T01:45:32.204Z,100775.61
2017-12-21T01:48:06.696Z,100746.89
2017-12-21T01:50:41.084Z,100779.02
2017-12-21T01:53:15.678Z,100778.30
2017-12-21T01:55:50.201Z,100777.69
2017-12-21T01:58:24.931Z,100764.30
2017-12-21T02:00:59.455Z,100767.52
2017-12-21T02:03:33.998Z,100771.02
2017-12-21T02:06:08.113Z,100765.70
2017-12-21T02:08:42.665Z,100765.79
2017-12-21T02:11:17.035Z,100761.91
2017-12-21T02:13:51.596Z,100767.36
2017-12-21T02:16:26.086Z,100774.33
2017-12-21T02:19:00.481Z,100763.66
2017-12-21T02:21:34.412Z,100756.46
2017-12-21T02:24:08.437Z,100759.03
2017-12-21T02:26:42.594Z,100762.77
2017-12-21T02:29:17.006Z,100755.61
2017-12-21T02:31:51.090Z,100751.81
2017-12-21T02:34:25.346Z,100758.08
2017-12-21T02:36:59.391Z,100756.09
2017-12-21T02:39:33.558Z,100762.22
2017-12-21T02:42:08.297Z,100758.05
2017-12-21T02:44:42.972Z,100758.14
2017-12-21T02:47:17.046Z,100755.89
2017-12-21T02:49:51.205Z,100757.22
2017-12-21T02:52:25.643Z,100755.98
2017-12-21T02:54:59.668Z,100756.59
2017-12-21T02:57:33.806Z,100751.52
2017-12-21T03:00:14.366Z,100734.84
2017-12-21T03:02:48.822Z,100744.88
2017-12-21T03:05:22.938Z,100756.13
2017-12-21T03:07:57.437Z,100763.09
2017-12-21T03:10:31.615Z,100758.28
2017-12-21T03:13:05.818Z,100756.94
2017-12-21T03:15:39.683Z,100752.14
2017-12-21T03:18:14.262Z,100758.92
2017-12-21T03:20:48.322Z,100756.36
2017-12-21T03:23:22.834Z,100760.52
2017-12-21T03:25:57.282Z,100762.50
2017-12-21T03:28:31.839Z,100758.58
2017-12-21T03:31:07.358Z,100764.17
2017-12-21T03:33:41.730Z,100755.96
2017-12-21T03:36:16.195Z,100760.86
2017-12-21T03:38:50.571Z,100749.70
2017-12-21T03:41:24.991Z,100747.00
2017-12-21T03:43:59.494Z,100743.52
2017-12-21T03:46:33.638Z,100735.31
2017-12-21T03:49:08.105Z,100737.11
2017-12-21T03:51:42.318Z,100739.77
2017-12-21T03:54:17.681Z,100736.59
2017-12-21T03:56:52.464Z,100746.38
2017-12-21T03:59:26.921Z,100745.77
2017-12-21T04:02:01.366Z,100743.55
2017-12-21T04:04:36.733Z,100739.56
2017-12-21T04:07:11.286Z,100716.29
2017-12-21T04:09:45.785Z,100738.59
2017-12-21T04:12:20.965Z,100727.06
2017-12-21T04:14:55.536Z,100743.38
2017-12-21T04:17:30.011Z,100744.91
2017-12-21T04:20:06.193Z,100751.22
2017-12-21T04:22:40.622Z,100734.88
2017-12-21T04:25:15.457Z,100734.73
2017-12-21T04:27:49.586Z,100739.06
2017-12-21T04:30:24.062Z,100746.15
2017-12-21T04:32:58.554Z,100752.61
2017-12-21T04:35:33.038Z,100747.46
2017-12-21T04:38:08.517Z,100749.98
2017-12-21T04:40:43.085Z,100750.89
2017-12-21T04:43:17.674Z,100748.27
2017-12-21T04:45:52.118Z,100725.28
2017-12-21T04:48:26.485Z,100750.22
2017-12-21T04:51:00.977Z,100728.80
2017-12-21T04:53:35.427Z,100747.80
2017-12-21T04:56:09.877Z,100741.36
2017-12-21T04:58:44.382Z,100749.83
2017-12-21T05:01:19.634Z,100745.95
2017-12-21T05:03:55.031Z,100751.59
2017-12-21T05:06:29.521Z,100755.63
2017-12-21T05:09:03.437Z,100762.68
2017-12-21T05:11:37.877Z,100758.92
2017-12-21T05:14:12.297Z,100756.59
2017-12-21T05:16:47.817Z,100759.86
2017-12-21T05:19:22.481Z,100756.52
2017-12-21T05:21:56.918Z,100757.02
2017-12-21T05:24:31.480Z,100753.47
2017-12-21T05:27:05.872Z,100752.47
2017-12-21T05:29:40.363Z,100744.88
2017-12-21T05:32:14.806Z,100742.95
2017-12-21T05:34:49.414Z,100748.09
2017-12-21T05:37:23.491Z,100743.19
2017-12-21T05:39:58.293Z,100744.67
2017-12-21T05:42:32.908Z,100748.64
2017-12-21T05:45:07.335Z,100743.59
2017-12-21T05:47:41.861Z,100747.70
2017-12-21T05:50:16.283Z,100740.20
2017-12-21T05:52:50.686Z,100747.28
2017-12-21T05:55:25.062Z,100735.01
2017-12-21T05:57:59.158Z,100738.80
2017-12-21T06:00:33.850Z,100731.23
2017-12-21T06:03:09.249Z,100741.23
2017-12-21T06:05:43.806Z,100740.63
2017-12-21T06:08:18.292Z,100733.25
2017-12-21T06:10:52.784Z,100726.83
2017-12-21T06:13:27.225Z,100726.31
2017-12-21T06:16:01.694Z,100723.29
2017-12-21T06:18:36.202Z,100721.27
2017-12-21T06:21:10.590Z,100728.66
2017-12-21T06:23:45.265Z,100723.41
2017-12-21T06:26:19.775Z,100724.55
2017-12-21T06:28:54.185Z,100724.13
2017-12-21T06:31:28.551Z,100716.47
2017-12-21T06:34:03.106Z,100719.17
2017-12-21T06:36:37.522Z,100710.57
2017-12-21T06:39:12.055Z,100718.34
2017-12-21T06:41:46.494Z,100716.69
2017-12-21T06:44:21.086Z,100707.16
2017-12-21T06:46:55.557Z,100707.67
2017-12-21T06:49:30.001Z,100707.38
2017-12-21T06:52:04.361Z,100706.14
2017-12-21T06:54:38.762Z,100696.91
2017-12-21T06:57:13.294Z,100707.98
2017-12-21T06:59:47.901Z,100714.34
2017-12-21T07:02:22.353Z,100663.48
2017-12-21T07:04:57.020Z,100723.87
2017-12-21T07:07:32.350Z,100714.87
2017-12-21T07:10:07.322Z,100715.11
2017-12-21T07:12:41.878Z,100697.98
2017-12-21T07:15:16.357Z,100714.91
2017-12-21T07:17:50.875Z,100716.25
2017-12-21T07:20:25.234Z,100729.88
2017-12-21T07:22:59.766Z,100716.97
2017-12-21T07:25:34.193Z,100716.75
2017-12-21T07:28:08.744Z,100729.67
2017-12-21T07:30:43.422Z,100710.33
2017-12-21T07:33:17.939Z,100716.86
2017-12-21T07:35:52.294Z,100722.02
2017-12-21T07:38:26.686Z,100704.29
2017-12-21T07:41:02.092Z,100701.73
2017-12-21T07:43:36.658Z,100713.70
2017-12-21T07:46:11.138Z,100711.77
2017-12-21T07:48:45.768Z,100724.36
2017-12-21T07:51:20.439Z,100704.19
2017-12-21T07:53:54.943Z,100709.73
2017-12-21T07:56:29.324Z,100713.75
2017-12-21T07:59:03.802Z,100713.86
2017-12-21T08:01:39.245Z,100713.03
2017-12-21T08:04:13.756Z,100718.77
2017-12-21T08:06:48.241Z,100711.52
2017-12-21T08:09:22.747Z,100711.29
2017-12-21T08:11:57.160Z,100711.80
2017-12-21T08:14:31.591Z,100699.31
2017-12-21T08:17:06.018Z,100704.14
2017-12-21T08:19:40.530Z,100638.04
2017-12-21T08:22:14.929Z,100730.45
2017-12-21T08:24:50.054Z,100718.67
2017-12-21T08:27:24.642Z,100711.63
2017-12-21T08:29:59.201Z,100721.14
2017-12-21T08:32:33.846Z,100710.98
2017-12-21T08:35:08.736Z,100687.70
2017-12-21T08:37:43.226Z,100710.39
2017-12-21T08:40:17.647Z,100732.20
2017-12-21T08:42:52.387Z,100722.98
2017-12-21T08:45:26.891Z,100728.94
2017-12-21T08:48:01.621Z,100736.19
2017-12-21T08:50:36.318Z,100716.02
2017-12-21T08:53:11.693Z,100720.61
2017-12-21T08:55:46.087Z,100711.36
2017-12-21T08:58:20.674Z,100722.63
2017-12-21T09:00:55.114Z,100719.63
2017-12-21T09:03:29.640Z,100717.76
2017-12-21T09:06:04.153Z,100733.45
2017-12-21T09:08:38.598Z,100718.72
2017-12-21T09:11:14.030Z,100729.08
2017-12-21T09:13:48.479Z,100723.00
2017-12-21T09:16:23.691Z,100719.81
2017-12-21T09:18:58.273Z,100712.83
2017-12-21T09:21:32.709Z,100676.47
2017-12-21T09:24:08.163Z,100706.28
2017-12-21T09:26:43.126Z,100711.38
2017-12-21T09:29:17.578Z,100704.77
2017-12-21T09:31:52.300Z,100702.29
2017-12-21T09:34:28.636Z,100718.86
2017-12-21T09:37:03.166Z,100718.20
2017-12-21T09:39:37.736Z,100684.77
2017-12-21T09:42:13.114Z,100709.81
2017-12-21T09:44:47.770Z,100694.70
2017-12-21T09:47:22.242Z,100698.81
2017-12-21T09:49:56.844Z,100689.78
2017-12-21T09:52:31.454Z,100677.02
2017-12-21T09:55:09.960Z,100688.89
2017-12-21T09:57:44.484Z,100681.92
2017-12-21T10:00:18.907Z,100686.92
2017-12-21T10:02:54.346Z,100683.86
2017-12-21T10:05:28.889Z,100683.88
2017-12-21T10:08:04.064Z,100693.48
2017-12-21T10:10:38.555Z,100691.19
2017-12-21T10:13:13.089Z,100678.13
2017-12-21T10:15:47.563Z,100682.33
2017-12-21T10:18:22.173Z,100671.89
2017-12-21T10:20:57.506Z,100659.60
2017-12-21T10:23:32.079Z,100660.37
2017-12-21T10:26:06.472Z,100659.15
2017-12-21T10:28:40.987Z,100664.58
2017-12-21T10:31:15.436Z,100653.75
2017-12-21T10:33:50.593Z,100646.58
2017-12-21T10:36:25.227Z,100640.03
2017-12-21T10:38:59.826Z,100637.46
2017-12-21T10:41:34.490Z,100640.86
2017-12-21T10:44:08.988Z,100637.16
2017-12-21T10:46:43.430Z,100631.33
2017-12-21T10:49:17.932Z,100630.43
2017-12-21T10:51:52.515Z,100610.49
2017-12-21T10:54:27.031Z,100613.98
2017-12-21T10:57:01.474Z,100606.69
2017-12-21T10:59:35.995Z,100592.98
2017-12-21T11:02:10.406Z,100598.13
2017-12-21T11:04:45.435Z,100603.86
2017-12-21T11:07:20.006Z,100590.45
2017-12-21T11:09:54.562Z,100583.80
2017-12-21T11:12:28.933Z,100582.06
2017-12-21T11:15:03.566Z,100570.62
2017-12-21T11:17:38.182Z,100561.19
2017-12-21T11:20:12.583Z,100547.69
2017-12-21T11:22:47.115Z,100531.91
2017-12-21T11:25:21.821Z,100513.28
2017-12-21T11:27:56.273Z,100524.75
2017-12-21T11:30:30.665Z,100508.56
2017-12-21T11:33:05.669Z,100521.08
2017-12-21T11:35:40.174Z,100514.80
2017-12-21T11:38:14.398Z,100463.67
2017-12-21T11:40:49.030Z,100525.25
2017-12-21T11:43:23.615Z,100496.88
2017-12-21T11:45:58.062Z,100506.80
2017-12-21T11:48:32.578Z,100513.86
2017-12-21T11:51:06.945Z,100493.66
2017-12-21T11:53:41.487Z,100491.14
2017-12-21T11:56:15.678Z,100490.08
2017-12-21T11:58:50.234Z,100489.38
2017-12-21T12:01:24.654Z,100483.73
2017-12-21T12:03:59.429Z,100487.80
2017-12-21T12:06:33.971Z,100471.84
2017-12-21T12:09:08.445Z,100472.99
2017-12-21T12:11:42.878Z,100464.92
2017-12-21T12:14:17.356Z,100470.84
2017-12-21T12:16:51.771Z,100475.48
2017-12-21T12:19:26.190Z,100470.53
2017-12-21T12:22:00.551Z,100480.98
2017-12-21T12:24:35.094Z,100482.21
2017-12-21T12:27:09.558Z,100475.42
2017-12-21T12:29:44.122Z,100479.42
2017-12-21T12:32:18.500Z,100473.25
2017-12-21T12:34:52.974Z,100397.80
2017-12-21T12:37:27.909Z,100436.27
2017-12-21T12:40:03.431Z,100458.31
2017-12-21T12:42:38.990Z,100436.67
2017-12-21T12:45:13.602Z,100430.41
2017-12-21T12:47:48.138Z,100429.52
2017-12-21T12:50:22.601Z,100426.92
2017-12-21T12:52:57.118Z,100415.89
2017-12-21T12:55:31.583Z,100407.49
2017-12-21T12:58:06.078Z,100422.36
2017-12-21T13:00:40.544Z,100413.13
2017-12-21T13:03:15.597Z,100415.91
2017-12-21T13:05:49.979Z,100410.39
2017-12-21T13:08:24.530Z,100393.13
2017-12-21T13:10:58.953Z,100393.94
2017-12-21T13:13:33.444Z,100403.79
2017-12-21T13:16:07.818Z,100286.09
2017-12-21T13:18:42.334Z,100389.41
2017-12-21T13:21:17.035Z,100374.33
2017-12-21T13:23:51.414Z,100367.88
2017-12-21T13:26:25.833Z,100361.55
2017-12-21T13:29:00.321Z,100344.69
2017-12-21T13:31:34.715Z,100375.03
2017-12-21T13:34:09.273Z,100369.11
2017-12-21T13:36:43.638Z,100369.30
2017-12-21T13:39:18.211Z,100375.45
2017-12-21T13:41:52.582Z,100361.23
2017-12-21T13:44:27.123Z,100373.79
2017-12-21T13:47:01.629Z,100357.61
2017-12-21T13:49:36.605Z,100364.19
2017-12-21T13:52:11.144Z,100372.04
2017-12-21T13:54:46.375Z,100366.95
2017-12-21T13:57:20.634Z,100365.78
2017-12-21T13:59:55.151Z,100366.41
2017-12-21T14:02:29.274Z,100378.39
2017-12-21T14:05:03.723Z,100375.59
2017-12-21T14:07:38.072Z,100376.55
2017-12-21T14:10:12.485Z,100379.41
2017-12-21T14:12:47.333Z,100387.92
2017-12-21T14:15:21.724Z,100362.06
2017-12-21T14:17:56.191Z,100372.38
2017-12-21T14:20:30.647Z,100370.05
2017-12-21T14:23:05.150Z,100358.67
2017-12-21T14:25:39.798Z,100361.38
2017-12-21T14:28:13.942Z,100352.16
2017-12-21T14:30:49.274Z,100347.66
2017-12-21T14:33:23.846Z,100354.48
2017-12-21T14:35:58.314Z,100348.59
2017-12-21T14:38:32.801Z,100370.39
2017-12-21T14:41:07.491Z,100347.43
2017-12-21T14:43:42.765Z,100370.98
2017-12-21T14:46:17.344Z,100357.98
2017-12-21T14:48:51.866Z,100365.23
2017-12-21T14:51:26.241Z,100358.72
2017-12-21T14:54:00.819Z,100358.60
2017-12-21T14:56:35.209Z,100350.42
2017-12-21T14:59:09.763Z,100365.88
2017-12-21T15:01:44.191Z,100348.66
2017-12-21T15:04:18.602Z,100350.08
2017-12-21T15:06:53.018Z,100353.45
2017-12-21T15:09:27.470Z,100334.91
2017-12-21T15:12:01.955Z,100353.22
2017-12-21T15:14:37.472Z,100333.77
2017-12-21T15:17:11.954Z,100345.06
2017-12-21T15:19:46.682Z,100369.03
2017-12-21T15:22:21.539Z,100360.39
2017-12-21T15:24:56.954Z,100359.49
2017-12-21T15:27:31.719Z,100352.66
2017-12-21T15:30:06.226Z,100383.19
2017-12-21T15:32:40.594Z,100373.05
2017-12-21T15:35:15.057Z,100372.64
2017-12-21T15:37:49.406Z,100364.47
2017-12-21T15:40:24.222Z,100379.61
2017-12-21T15:42:58.618Z,100402.42
2017-12-21T15:45:33.947Z,100373.66
2017-12-21T15:48:08.587Z,100389.63
2017-12-21T15:50:42.822Z,100384.72
2017-12-21T15:53:17.584Z,100382.19
2017-12-21T15:55:52.055Z,100387.58
2017-12-21T15:58:26.600Z,100398.23
2017-12-21T16:01:01.245Z,100394.10
2017-12-21T16:03:35.756Z,100378.77
2017-12-21T16:06:10.130Z,100399.84
2017-12-21T16:08:45.132Z,100405.58
2017-12-21T16:11:19.848Z,100403.64
2017-12-21T16:13:54.330Z,100418.55
2017-12-21T16:16:30.078Z,100410.78
2017-12-21T16:19:04.314Z,100407.81
2017-12-21T16:21:38.855Z,100413.56
2017-12-21T16:24:13.364Z,100419.87
2017-12-21T16:26:47.777Z,100427.25
2017-12-21T16:29:22.262Z,100416.78
2017-12-21T16:31:56.678Z,100423.03
2017-12-21T16:34:31.226Z,100422.02
2017-12-21T16:37:05.710Z,100421.20
2017-12-21T16:39:40.314Z,100429.91
2017-12-21T16:42:14.803Z,100435.94
2017-12-21T16:44:49.375Z,100438.41
2017-12-21T16:47:23.730Z,100426.02
2017-12-21T16:49:58.893Z,100436.58
2017-12-21T16:52:33.174Z,100444.97
2017-12-21T16:55:07.653Z,100406.14
2017-12-21T16:57:42.154Z,100434.53
2017-12-21T17:00:17.786Z,100446.55
2017-12-21T17:02:52.273Z,100458.30
2017-12-21T17:05:26.688Z,100447.75
2017-12-21T17:08:01.232Z,100456.88
2017-12-21T17:10:35.710Z,100454.22
2017-12-21T17:13:10.398Z,100461.88
2017-12-21T17:15:44.810Z,100459.03
2017-12-21T17:18:19.334Z,100460.37
2017-12-21T17:20:53.787Z,100454.13
2017-12-21T17:23:27.981Z,100465.47
2017-12-21T17:26:02.060Z,100456.56
2017-12-21T17:28:36.550Z,100463.13
2017-12-21T17:31:11.010Z,100450.05
2017-12-21T17:33:46.194Z,100447.99
2017-12-21T17:36:20.782Z,100451.48
2017-12-21T17:38:55.581Z,100442.89
2017-12-21T17:41:30.751Z,100453.03
2017-12-21T17:44:06.427Z,100455.28
2017-12-21T17:46:40.997Z,100453.22
2017-12-21T17:49:15.562Z,100451.06
2017-12-21T17:51:50.073Z,100465.29
2017-12-21T17:54:24.452Z,100452.40
2017-12-21T17:56:58.563Z,100466.65
2017-12-21T17:59:33.042Z,100465.00
2017-12-21T18:02:07.529Z,100457.75
2017-12-21T18:04:42.042Z,100461.11
2017-12-21T18:07:16.406Z,100465.20
2017-12-21T18:09:50.938Z,100457.84
2017-12-21T18:12:25.318Z,100428.08
2017-12-21T18:14:59.902Z,100458.67
2017-12-21T18:17:34.286Z,100464.69
2017-12-21T18:20:08.743Z,100458.86
2017-12-21T18:22:43.287Z,100455.28
2017-12-21T18:25:17.463Z,100452.72
2017-12-21T18:27:51.985Z,100446.89
2017-12-21T18:30:26.050Z,100460.51
2017-12-21T18:33:00.543Z,100453.73
2017-12-21T18:35:36.025Z,100453.54
2017-12-21T18:38:10.790Z,100439.42
2017-12-21T18:40:46.427Z,100441.57
2017-12-21T18:43:20.966Z,100446.26
2017-12-21T18:45:56.901Z,100429.28
2017-12-21T18:48:31.910Z,100440.75
2017-12-21T18:51:06.920Z,100458.64
2017-12-21T18:53:41.647Z,100442.98
2017-12-21T18:56:16.262Z,100449.83
2017-12-21T18:58:50.754Z,100450.05
2017-12-21T19:01:26.033Z,100447.48
2017-12-21T19:04:01.776Z,100461.70
2017-12-21T19:06:36.204Z,100452.30
2017-12-21T19:09:11.216Z,100458.03
2017-12-21T19:11:45.263Z,100459.87
2017-12-21T19:14:20.398Z,100440.42
2017-12-21T19:16:55.248Z,100443.08
2017-12-21T19:19:29.469Z,100435.92
2017-12-21T19:22:04.354Z,100466.30
2017-12-21T19:24:39.373Z,100464.18
2017-12-21T19:27:14.851Z,100457.63
2017-12-21T19:29:49.664Z,100462.53
2017-12-21T19:32:24.326Z,100462.95
2017-12-21T19:35:00.940Z,100469.50
2017-12-21T19:37:35.525Z,100468.45
2017-12-21T19:40:10.585Z,100481.25
2017-12-21T19:42:45.010Z,100472.77
2017-12-21T19:45:19.628Z,100467.75
2017-12-21T19:47:54.302Z,100453.81
2017-12-21T19:50:29.749Z,100474.18
2017-12-21T19:53:04.249Z,100459.55
2017-12-21T19:55:38.654Z,100451.33
2017-12-21T19:58:13.217Z,100424.53
2017-12-21T20:00:48.411Z,100413.37
2017-12-21T20:03:22.978Z,100419.53
2017-12-21T20:05:57.802Z,100430.67
2017-12-21T20:08:32.802Z,100424.44
2017-12-21T20:11:07.337Z,100411.73
2017-12-21T20:13:41.833Z,100422.61
2017-12-21T20:16:16.234Z,100437.44
2017-12-21T20:18:50.648Z,100431.28
2017-12-21T20:21:25.031Z,100432.11
2017-12-21T20:23:59.532Z,100418.80
2017-12-21T20:26:33.978Z,100425.55
2017-12-21T20:29:08.572Z,100416.23
2017-12-21T20:31:43.877Z,100415.73
2017-12-21T20:34:18.543Z,100426.03
2017-12-21T20:36:59.134Z,100423.59
2017-12-21T20:39:33.695Z,100428.28
2017-12-21T20:42:08.083Z,100431.35
2017-12-21T20:44:42.586Z,100431.98
2017-12-21T20:47:18.878Z,100453.87
2017-12-21T20:49:54.121Z,100453.45
2017-12-21T20:52:32.390Z,100482.73
2017-12-21T20:55:08.526Z,100413.71
2017-12-21T20:57:43.880Z,100487.53
2017-12-21T21:00:18.533Z,100478.50
2017-12-21T21:02:53.145Z,100469.00
2017-12-21T21:05:27.514Z,100493.56
2017-12-21T21:08:02.046Z,100501.45
2017-12-21T21:10:36.506Z,100497.78
2017-12-21T21:13:11.172Z,100510.38
2017-12-21T21:15:45.193Z,100528.28
2017-12-21T21:18:19.381Z,100521.44
2017-12-21T21:20:53.451Z,100539.34
2017-12-21T21:23:28.032Z,100549.48
2017-12-21T21:26:02.506Z,100542.14
2017-12-21T21:28:37.162Z,100543.88
2017-12-21T21:31:11.820Z,100540.81
2017-12-21T21:33:46.389Z,100536.81
2017-12-21T21:36:20.983Z,100513.36
2017-12-21T21:38:55.493Z,100523.09
2017-12-21T21:41:29.900Z,100499.82
2017-12-21T21:44:03.930Z,100517.95
2017-12-21T21:46:38.129Z,100516.84
2017-12-21T21:49:12.938Z,100517.95
2017-12-21T21:51:47.312Z,100492.48
2017-12-21T21:54:21.788Z,100506.39
2017-12-21T21:56:56.271Z,100500.66
2017-12-21T21:59:30.797Z,100525.25
2017-12-21T22:02:05.147Z,100522.08
2017-12-21T22:04:39.652Z,100534.34
2017-12-21T22:07:14.058Z,100540.49
2017-12-21T22:09:48.486Z,100543.38
2017-12-21T22:12:22.905Z,100532.82
2017-12-21T22:14:57.497Z,100544.30
2017-12-21T22:17:31.554Z,100529.33
2017-12-21T22:20:10.474Z,100521.95
2017-12-21T22:22:46.407Z,100517.54
2017-12-21T22:25:23.418Z,100513.27
2017-12-21T22:27:58.003Z,100510.59
2017-12-21T22:30:32.357Z,100518.58
2017-12-21T22:33:06.745Z,100521.44
2017-12-21T22:35:41.205Z,100511.53
2017-12-21T22:38:15.888Z,100523.50
2017-12-21T22:40:50.451Z,100523.28
2017-12-21T22:43:25.006Z,100527.17
2017-12-21T22:45:59.499Z,100527.91
2017-12-21T22:48:34.054Z,100525.44
2017-12-21T22:51:08.511Z,100531.17
2017-12-21T22:53:43.094Z,100517.55
2017-12-21T22:56:17.685Z,100521.77
2017-12-21T22:58:52.203Z,100496.70
2017-12-21T23:01:27.245Z,100515.52
2017-12-21T23:04:01.864Z,100507.86
2017-12-21T23:06:36.278Z,100495.97
2017-12-21T23:09:11.490Z,100512.03
2017-12-21T23:11:46.038Z,100506.62
2017-12-21T23:14:20.578Z,100495.88
2017-12-21T23:16:54.998Z,100495.24
2017-12-21T23:19:29.680Z,100507.86
2017-12-21T23:22:04.046Z,100508.88
2017-12-21T23:24:38.485Z,100514.52
2017-12-21T23:27:12.859Z,100517.59
2017-12-21T23:29:47.577Z,100525.16
2017-12-21T23:32:22.114Z,100513.59
2017-12-21T23:34:56.595Z,100513.78
2017-12-21T23:37:31.010Z,100533.42
2017-12-21T23:40:08.766Z,100526.48
2017-12-21T23:42:43.151Z,100528.93
2017-12-21T23:45:17.194Z,100530.98
2017-12-21T23:47:51.890Z,100544.71
2017-12-21T23:50:26.260Z,100550.54
2017-12-21T23:53:00.434Z,100551.55
2017-12-21T23:55:34.331Z,100559.77
2017-12-21T23:58:09.880Z,100549.71
